Latest Weather Observations for Warracknabeal Airport

IDV60801

Issued at 6:22 am EDT Monday 9 December 2019 (issued every 10 minutes, with the page automatically refreshed every 10 minutes)

About weather observations | Map of weather stations | Latest weather observations for VIC | Other Formats
Station Details ID: 078018 Name: WARRACKNABEAL AIRPORT Lat: -36.32 Lon: 142.42 Height: 118.3 m
Data from the previous 72 hours. | See also: Recent months at Warracknabeal Airport
Date/Time
EDT
Temp
°C
App
Temp
°C
Dew
Point
°C
Rel
Hum
%
Delta-T
°C
Wind Press
QNH
hPa
Press
MSL
hPa
Rain since
9am
mm
Dir  Spd
km/h
Gust
km/h
Spd
kts
Gust
kts
09/06:00am 16.7 12.7 0.8 34 7.0 NE 11 15 6 8 1012.9 1012.6 0.0
09/05:30am 16.3 11.6 0.8 35 6.8 NE 15 17 8 9 1012.5 1012.2 0.0
09/05:00am 17.5 12.8 1.1 33 7.3 NE 15 19 8 10 1012.2 1011.9 0.0
09/04:30am 18.4 13.6 0.5 30 7.9 NE 15 17 8 9 1012.2 1011.9 0.0
09/04:00am 20.1 14.5 0.0 26 8.9 NNE 19 24 10 13 1012.1 1011.8 0.0
09/03:30am 20.4 14.2 -0.3 25 9.2 NE 22 26 12 14 1012.0 1011.7 0.0
09/03:00am 19.3 13.7 -0.1 27 8.6 NE 19 22 10 12 1012.6 1012.3 0.0
09/02:30am 19.0 13.7 -0.9 26 8.6 NNE 17 19 9 10 1013.1 1012.8 0.0
09/02:00am 21.1 15.8 -0.8 23 9.7 NE 17 20 9 11 1013.2 1012.9 0.0
09/01:30am 21.2 15.9 -0.7 23 9.7 NE 17 20 9 11 1013.3 1013.0 0.0
09/01:00am 18.8 14.3 -0.1 28 8.3 ENE 13 17 7 9 1013.6 1013.3 0.0
09/12:30am 18.8 13.9 -0.6 27 8.4 ENE 15 17 8 9 1014.1 1013.8 0.0
09/12:00am 19.5 14.6 -0.5 26 8.8 ENE 15 17 8 9 1014.4 1014.1 0.0
 
Date/Time
EDT
Temp
°C
App
Temp
°C
Dew
Point
°C
Rel
Hum
%
Delta-T
°C
Wind Press
QNH
hPa
Press
MSL
hPa
Rain since
9am
mm
Dir  Spd
km/h
Gust
km/h
Spd
kts
Gust
kts
08/11:30pm 19.5 14.9 -1.0 25 8.9 ENE 13 15 7 8 1014.6 1014.3 0.0
08/11:00pm 20.2 15.6 -1.0 24 9.2 NE 13 15 7 8 1014.7 1014.4 0.0
08/10:30pm 20.7 16.1 -1.1 23 9.5 NE 13 15 7 8 1014.7 1014.4 0.0
08/10:00pm 21.0 16.0 -0.9 23 9.6 NNE 15 15 8 8 1014.7 1014.4 0.0
08/09:30pm 21.3 16.3 -1.3 22 9.9 NNE 15 15 8 8 1014.7 1014.4 0.0
08/09:00pm 24.7 20.5 -1.2 18 11.7 NNE 11 11 6 6 1014.7 1014.4 0.0
08/08:30pm 26.5 22.1 -2.2 15 12.9 NNE 11 13 6 7 1014.5 1014.2 0.0
08/08:00pm 29.5 24.7 -2.9 12 14.7 NNE 13 15 7 8 1014.3 1014.0 0.0
08/07:30pm 32.1 27.6 -3.3 10 16.3 NE 11 15 6 8 1014.0 1013.7 0.0
08/07:00pm 33.5 29.7 -3.7 9 17.2 N 7 13 4 7 1013.8 1013.5 0.0
08/06:30pm 33.2 29.0 -3.9 9 17.1 N 9 19 5 10 1013.7 1013.4 0.0
08/06:00pm 33.3 28.9 -2.4 10 16.8 N 11 20 6 11 1013.6 1013.3 0.0
08/05:30pm 33.4 28.5 -3.7 9 17.1 N 13 22 7 12 1013.7 1013.4 0.0
08/05:00pm 32.7 27.1 -2.9 10 16.6 N 17 28 9 15 1014.0 1013.7 0.0
08/04:30pm 33.3 28.5 -2.4 10 16.8 NE 13 20 7 11 1014.1 1013.8 0.0
08/04:00pm 32.5 27.3 -3.0 10 16.5 N 15 28 8 15 1014.4 1014.1 0.0
08/03:30pm 32.1 27.0 -2.0 11 16.1 NNE 15 24 8 13 1014.7 1014.4 0.0
08/03:00pm 31.8 26.8 -1.1 12 15.7 NNE 15 22 8 12 1015.1 1014.8 0.0
08/02:30pm 31.2 27.7 1.5 15 14.7 NE 9 17 5 9 1015.3 1015.0 0.0
08/02:00pm 31.1 26.5 1.4 15 14.7 NE 15 24 8 13 1015.5 1015.2 0.0
08/01:30pm 29.9 25.0 -0.5 14 14.5 N 15 20 8 11 1016.0 1015.7 0.0
08/01:00pm 29.4 25.1 1.0 16 13.8 NNE 13 24 7 13 1016.2 1015.9 0.0
08/12:30pm 28.1 24.0 2.3 19 12.7 NE 13 20 7 11 1016.5 1016.2 0.0
08/12:00pm 27.8 24.1 4.2 22 12.0 NE 13 26 7 14 1016.9 1016.6 0.0
08/11:30am 26.1 21.7 4.6 25 10.9 NE 17 26 9 14 1017.2 1016.8 0.0
08/11:00am 25.8 21.5 5.4 27 10.5 ENE 17 24 9 13 1017.6 1017.2 0.0
08/10:30am 23.5 18.6 4.0 28 9.6 NE 19 26 10 14 1017.7 1017.3 0.0
08/10:00am 22.1 17.7 4.7 32 8.6 ENE 17 22 9 12 1017.9 1017.5 0.0
08/09:30am 20.0 15.7 5.3 38 7.3 E 17 22 9 12 1018.0 1017.6 0.0
08/09:00am 18.5 14.8 6.4 45 6.0 ESE 15 20 8 11 1018.2 1017.8 0.0
08/08:30am 16.3 12.1 7.3 55 4.5 ESE 19 22 10 12 1018.1 1017.7 0.0
08/08:00am 14.0 11.1 8.0 67 3.0 SE 13 15 7 8 1018.2 1017.8 0.0
08/07:30am 12.1 8.4 7.8 75 2.1 SE 17 20 9 11 1017.8 1017.4 0.0
08/07:00am 10.5 6.3 7.6 82 1.4 SSE 19 24 10 13 1017.5 1017.1 0.0
08/06:30am 9.5 6.0 7.3 86 1.0 SE 15 20 8 11 1017.3 1016.9 0.0
08/06:00am 9.2 5.3 7.2 87 0.9 SSE 17 20 9 11 1017.3 1016.9 0.0
08/05:30am 9.1 5.6 7.1 87 0.9 SE 15 19 8 10 1017.3 1016.9 0.0
08/05:00am 9.7 6.7 7.5 86 1.1 SE 13 17 7 9 1016.9 1016.6 0.0
08/04:30am 10.0 5.8 7.4 84 1.2 SE 19 24 10 13 1016.9 1016.6 0.0
08/04:00am 10.6 7.2 7.8 83 1.4 SE 15 17 8 9 1017.1 1016.7 0.0
08/03:30am 11.1 7.4 8.0 81 1.5 SE 17 20 9 11 1017.3 1016.9 0.0
08/03:00am 11.4 8.1 7.9 79 1.7 SE 15 20 8 11 1017.2 1016.8 0.0
08/02:30am 12.4 8.8 8.3 76 2.0 SE 17 26 9 14 1016.9 1016.6 0.0
08/02:00am 13.2 9.0 8.3 72 2.4 SSE 20 26 11 14 1016.8 1016.5 0.0
08/01:30am 13.6 10.0 8.4 71 2.6 SSE 17 20 9 11 1017.1 1016.7 0.0
08/01:00am 14.8 10.9 8.7 67 3.1 SE 19 26 10 14 1017.2 1016.8 0.0
08/12:30am 15.2 11.4 8.9 66 3.2 SSE 19 20 10 11 1017.4 1017.0 0.0
08/12:00am 16.2 12.2 8.9 62 3.8 SE 20 24 11 13 1017.6 1017.2 0.0
 
Date/Time
EDT
Temp
°C
App
Temp
°C
Dew
Point
°C
Rel
Hum
%
Delta-T
°C
Wind Press
QNH
hPa
Press
MSL
hPa
Rain since
9am
mm
Dir  Spd
km/h
Gust
km/h
Spd
kts
Gust
kts
07/11:30pm 17.0 13.1 8.7 58 4.3 SE 19 24 10 13 1017.5 1017.1 0.0
07/11:00pm 17.2 12.8 7.5 53 4.9 SSE 20 24 11 13 1017.4 1017.0 0.0
07/10:30pm 18.1 13.3 5.7 44 6.1 SSE 20 26 11 14 1017.1 1016.7 0.0
07/10:00pm 19.7 14.7 4.6 37 7.3 SSE 20 24 11 13 1016.7 1016.4 0.0
07/09:30pm 19.0 15.0 2.8 34 7.6 S 13 15 7 8 1016.2 1015.9 0.0
07/09:00pm 20.5 15.9 1.4 28 8.8 S 15 17 8 9 1016.1 1015.8 0.0
07/08:30pm 22.7 17.7 1.1 24 10.0 S 17 20 9 11 1015.6 1015.3 0.0
07/08:00pm 24.7 19.6 0.9 21 11.2 S 17 22 9 12 1015.3 1015.0 0.0
07/07:30pm 26.3 20.5 0.1 18 12.3 SSW 20 28 11 15 1015.0 1014.7 0.0
07/07:00pm 27.1 21.1 -1.7 15 13.1 SSW 20 26 11 14 1014.6 1014.3 0.0
07/06:30pm 27.5 22.0 -2.3 14 13.5 SW 17 30 9 16 1014.3 1014.0 0.0
07/06:00pm 27.4 21.4 -1.5 15 13.2 SW 20 30 11 16 1014.3 1014.0 0.0
07/05:30pm 27.5 21.5 -1.4 15 13.3 SW 20 33 11 18 1014.4 1014.1 0.0
07/05:00pm 27.6 23.5 -0.5 16 13.1 WSW 11 24 6 13 1014.4 1014.1 0.0
07/04:30pm 27.5 21.8 -0.5 16 13.1 SSW 19 30 10 16 1014.7 1014.4 0.0
07/04:00pm 27.6 22.6 -1.3 15 13.3 SSW 15 32 8 17 1014.9 1014.6 0.0
07/03:30pm 26.3 22.1 -0.7 17 12.5 WSW 11 26 6 14 1015.1 1014.8 0.0
07/03:00pm 26.1 22.1 0.7 19 12.0 SW 11 20 6 11 1015.3 1015.0 0.0
07/02:30pm 25.5 20.6 -0.5 18 12.0 WSW 15 26 8 14 1015.6 1015.3 0.0
07/02:00pm 25.4 21.3 0.1 19 11.7 W 11 20 6 11 1015.9 1015.6 0.0
07/01:30pm 23.8 18.5 -0.5 20 11.0 WSW 17 24 9 13 1016.1 1015.8 0.0
07/01:00pm 23.3 19.6 -0.2 21 10.7 S 9 20 5 11 1016.2 1015.9 0.0
07/12:30pm 23.0 18.7 0.8 23 10.3 SW 13 26 7 14 1016.4 1016.1 0.0
07/12:00pm 22.4 18.0 0.3 23 10.1 S 13 20 7 11 1016.5 1016.2 0.0
07/11:30am 21.3 17.3 3.0 30 8.7 SW 13 22 7 12 1016.8 1016.5 0.0
07/11:00am 20.0 16.5 3.3 33 7.9 S 11 22 6 12 1017.2 1016.8 0.0
07/10:30am 19.3 15.6 4.6 38 7.1 SSW 13 24 7 13 1017.4 1017.0 0.0
07/10:00am 17.3 14.0 6.2 48 5.5 S 13 20 7 11 1017.6 1017.2 0.0
07/09:30am 15.8 11.2 6.5 54 4.6 S 20 24 11 13 1017.6 1017.2 0.0
07/09:00am 14.6 10.2 6.4 58 4.0 S 19 24 10 13 1017.7 1017.3 0.0
07/08:30am 13.6 8.3 6.9 64 3.3 SSW 24 32 13 17 1017.6 1017.2 0.0
07/08:00am 11.5 7.1 6.6 72 2.3 SSW 19 24 10 13 1017.6 1017.2 0.0
07/07:30am 9.3 5.9 6.0 80 1.5 SSW 13 19 7 10 1017.4 1017.0 0.0
07/07:00am 7.6 4.5 5.6 87 0.9 SSW 11 15 6 8 1016.8 1016.5 0.0
07/06:30am 6.0 2.7 4.6 91 0.6 SSW 11 13 6 7 1016.6 1016.3 0.0
07/06:00am 6.2 2.6 5.0 92 0.5 SSW 13 13 7 7 1016.6 1016.3 0.0
07/05:30am 5.8 2.8 4.3 90 0.6 SSW 9 11 5 6 1016.4 1016.1 0.0
07/05:00am 6.6 3.3 4.8 88 0.8 SSW 11 11 6 6 1016.4 1016.1 0.0
07/04:30am 7.8 4.3 5.4 85 1.1 SSW 13 15 7 8 1016.2 1015.9 0.0
07/04:00am 8.4 3.8 5.5 82 1.3 SSW 19 22 10 12 1016.2 1015.9 0.0
07/03:30am 8.4 4.2 5.5 82 1.3 SSW 17 20 9 11 1016.1 1015.8 0.0
07/03:00am 7.7 4.1 4.8 82 1.3 SW 13 15 7 8 1016.6 1016.3 0.0
07/02:30am 8.5 4.2 5.1 79 1.5 SSW 17 22 9 12 1016.4 1016.1 0.0
07/02:00am 9.1 4.8 5.3 77 1.7 SSW 17 20 9 11 1016.5 1016.2 0.0
07/01:30am 9.1 5.5 5.1 76 1.8 SSW 13 17 7 9 1016.7 1016.4 0.0
07/01:00am 9.8 5.9 5.4 74 2.0 SW 15 19 8 10 1016.4 1016.1 0.0
07/12:30am 10.8 6.6 5.6 70 2.4 SW 17 24 9 13 1016.1 1015.8 0.0
07/12:00am 11.5 6.9 5.6 67 2.7 SW 19 26 10 14 1016.3 1016.0 0.0
 
Date/Time
EDT
Temp
°C
App
Temp
°C
Dew
Point
°C
Rel
Hum
%
Delta-T
°C
Wind Press
QNH
hPa
Press
MSL
hPa
Rain since
9am
mm
Dir  Spd
km/h
Gust
km/h
Spd
kts
Gust
kts
06/11:30pm 12.3 7.7 5.7 64 3.1 SSW 19 24 10 13 1016.2 1015.9 0.0
06/11:00pm 13.1 8.5 5.5 60 3.6 SSW 19 24 10 13 1016.0 1015.7 0.0
06/10:30pm 13.6 9.0 5.5 58 3.8 SSW 19 24 10 13 1016.2 1015.9 0.0
06/10:00pm 14.6 10.0 5.4 54 4.4 SW 19 24 10 13 1015.9 1015.6 0.0
06/09:30pm 15.7 10.8 5.0 49 5.1 SSW 20 26 11 14 1015.7 1015.4 0.0
06/09:00pm 16.8 11.2 5.4 47 5.5 SW 24 30 13 16 1015.1 1014.8 0.0
06/08:30pm 18.1 12.4 5.0 42 6.3 SW 24 33 13 18 1014.5 1014.2 0.0
06/08:00pm 19.5 12.7 5.2 39 7.0 SW 30 43 16 23 1013.9 1013.6 0.0
06/07:30pm 21.1 14.8 5.5 36 7.8 SW 28 39 15 21 1013.4 1013.1 0.0
06/07:00pm 21.8 14.7 5.3 34 8.2 SW 32 43 17 23 1012.8 1012.5 0.0
06/06:30pm 22.4 15.6 4.9 32 8.7 SW 30 43 16 23 1012.5 1012.2 0.0
06/06:00pm 23.1 16.3 5.1 31 9.0 SW 30 37 16 20 1012.4 1012.1 0.0
06/05:30pm 23.6 16.3 4.5 29 9.5 SW 32 41 17 22 1012.1 1011.8 0.0
06/05:00pm 23.6 16.5 3.5 27 9.8 SW 30 48 16 26 1012.2 1011.9 0.0
06/04:46pm 23.6 16.7 4.5 29 9.5 SW 30 50 16 27 1012.2 1011.9 0.0
06/04:30pm 23.6 16.4 5.0 30 9.3 SW 32 46 17 25 1012.4 1012.1 0.0
06/04:02pm 23.6 16.8 5.0 30 9.3 SW 30 48 16 26 1012.4 1012.1 0.0
06/04:00pm 23.1 15.8 4.6 30 9.2 SW 32 48 17 26 1012.5 1012.2 0.0
06/03:41pm 23.6 17.2 5.0 30 9.3 SW 28 46 15 25 1012.4 1012.1 0.0
06/03:30pm 23.6 17.1 4.5 29 9.5 SW 28 39 15 21 1012.5 1012.2 0.0
06/03:00pm 23.7 16.8 4.6 29 9.5 WSW 30 59 16 32 1012.8 1012.5 0.0
06/02:55pm 24.1 17.8 5.9 31 9.3 WSW 28 46 15 25 1012.8 1012.5 0.0
06/02:30pm 22.6 15.8 5.1 32 8.8 WSW 30 46 16 25 1012.7 1012.4 0.0
06/02:05pm 22.7 16.3 5.2 32 8.8 WSW 28 52 15 28 1013.1 1012.8 0.0
06/02:00pm 22.4 16.5 5.8 34 8.4 WSW 26 43 14 23 1013.1 1012.8 0.0
06/01:30pm 21.8 15.5 5.7 35 8.1 SW 28 43 15 23 1013.3 1013.0 0.0
06/01:00pm 21.2 15.3 5.6 36 7.8 WSW 26 43 14 23 1013.2 1012.9 0.0
06/12:30pm 20.5 14.8 6.8 41 7.0 WSW 26 37 14 20 1013.4 1013.1 0.0
06/12:00pm 19.2 13.1 6.7 44 6.3 SW 28 43 15 23 1013.6 1013.3 0.0
06/11:30am 18.2 12.1 6.7 47 5.8 SW 28 41 15 22 1013.7 1013.4 0.0
06/11:00am 17.8 11.4 7.0 49 5.4 SW 30 41 16 22 1014.1 1013.8 0.0
06/10:30am 16.6 9.2 6.7 52 4.9 SW 35 44 19 24 1014.2 1013.9 0.0
06/10:00am 16.2 9.9 7.2 55 4.5 SW 30 46 16 25 1013.8 1013.5 0.0
06/09:30am 15.6 8.6 6.9 56 4.3 SW 33 44 18 24 1014.1 1013.8 0.0
06/09:00am 14.5 8.4 6.8 60 3.8 SSW 28 39 15 21 1013.5 1013.2 0.0
06/08:30am 13.2 7.1 6.8 65 3.1 SSW 28 41 15 22 1013.2 1012.9 0.0
06/08:00am 12.4 7.5 6.9 69 2.7 SW 22 32 12 17 1013.0 1012.7 0.0
06/07:30am 10.6 7.0 6.7 77 1.8 SW 15 20 8 11 1012.5 1012.2 0.0
06/07:00am 9.7 6.8 6.6 81 1.5 SW 11 15 6 8 1012.4 1012.1 0.0
06/06:30am 9.1 6.6 6.4 83 1.3 SW 9 13 5 7 1012.1 1011.8 0.0

Other formats

Comma delimited format used in spreadsheet applications
http://www.bom.gov.au/fwo/IDV60801/IDV60801.94920.axf

JavaScript Object Notation format (JSON) in row-major order
http://www.bom.gov.au/fwo/IDV60801/IDV60801.94920.json

Data quality

Most of these data are generated automatically and are frequently updated. Quality checks on data are not normally performed. It is possible for incorrect values to appear. Refer to information at About Latest Weather Observations and please check the disclaimer before using these data.